Time;durP1;ratioP1;P1;durP2;ratioP2;P2;SDS_P1;SDS_P2;PMS_P1;PMS_P2;Temp;Humidity;BMP_temperature;BMP_pressure;BME280_temperature;BME280_humidity;BME280_pressure;Samples;Min_cycle;Max_cycle;Signal;HPM_P1;HPM_P2
2022/06/22 00:01:20;;;;;;;2.38;1.52;;;12.20;99.90;;;;;;5085343;28;20452;-52
2022/06/22 00:03:52;;;;;;;2.17;1.25;;;12.20;99.90;;;;;;5092536;28;20051;-51
2022/06/22 00:06:46;;;;;;;1.67;1.30;;;12.10;99.90;;;;;;5090877;28;20116;-51
2022/06/22 00:09:30;;;;;;;2.83;1.30;;;12.20;99.90;;;;;;5084272;28;20051;-51
2022/06/22 00:11:57;;;;;;;2.50;1.25;;;12.20;99.90;;;;;;5070488;28;20062;-49
2022/06/22 00:14:36;;;;;;;3.53;1.48;;;12.10;99.90;;;;;;5091816;28;20024;-51
2022/06/22 00:17:02;;;;;;;1.60;1.30;;;12.10;99.90;;;;;;5070593;28;20020;-50
2022/06/22 00:19:41;;;;;;;2.92;1.50;;;12.00;99.90;;;;;;5091017;28;20028;-53
2022/06/22 00:22:51;;;;;;;1.95;1.20;;;12.00;99.90;;;;;;5070459;28;20157;-52
2022/06/22 00:25:36;;;;;;;1.58;1.20;;;12.00;99.90;;;;;;5054198;28;20048;-51
2022/06/22 00:28:27;;;;;;;1.92;1.50;;;11.90;99.90;;;;;;5080800;28;20040;-48
2022/06/22 00:31:03;;;;;;;1.27;1.17;;;11.90;99.90;;;;;;5110248;28;20307;-52
2022/06/22 00:33:29;;;;;;;1.92;1.30;;;11.90;99.90;;;;;;5085064;28;20028;-50
2022/06/22 00:36:01;;;;;;;1.65;1.20;;;11.80;99.90;;;;;;5090960;28;20492;-50
2022/06/22 00:38:30;;;;;;;2.83;1.63;;;11.80;99.90;;;;;;5108180;28;20041;-53
2022/06/22 00:41:00;;;;;;;3.03;1.33;;;11.80;99.90;;;;;;5090619;28;20039;-50
2022/06/22 00:43:29;;;;;;;2.38;1.77;;;11.70;99.90;;;;;;5087860;28;20132;-51
2022/06/22 00:45:56;;;;;;;1.90;1.75;;;11.70;99.90;;;;;;5110398;28;20407;-52
2022/06/22 00:48:34;;;;;;;3.58;1.40;;;11.70;99.90;;;;;;5095960;28;20102;-49
2022/06/22 00:51:09;;;;;;;4.07;1.70;;;11.70;99.90;;;;;;5069893;28;20024;-49
2022/06/22 00:53:41;;;;;;;2.45;1.20;;;11.60;99.90;;;;;;5085448;28;20055;-51
2022/06/22 00:56:10;;;;;;;2.22;1.30;;;11.60;99.90;;;;;;5089866;28;20107;-50
2022/06/22 00:59:00;;;;;;;1.85;1.17;;;11.60;99.90;;;;;;5108180;28;20039;-52
2022/06/22 01:01:32;;;;;;;4.90;1.45;;;11.50;99.90;;;;;;5063914;28;20024;-59
2022/06/22 01:04:21;;;;;;;2.05;1.52;;;11.50;99.90;;;;;;5091380;28;20067;-83
2022/06/22 01:06:54;;;;;;;3.65;1.75;;;11.50;99.90;;;;;;5069921;28;20038;-47
2022/06/22 01:09:45;;;;;;;2.20;1.55;;;11.50;99.90;;;;;;5082796;28;20042;-48
2022/06/22 01:12:39;;;;;;;3.25;1.70;;;11.40;99.90;;;;;;5069751;28;20051;-51
2022/06/22 01:15:12;;;;;;;4.57;1.85;;;11.40;99.90;;;;;;5068176;28;20491;-47
2022/06/22 01:17:54;;;;;;;2.17;1.35;;;11.40;99.90;;;;;;5067799;28;20480;-50
2022/06/22 01:20:27;;;;;;;3.17;1.63;;;11.40;99.90;;;;;;5109674;28;20027;-50
2022/06/22 01:23:16;;;;;;;2.60;1.60;;;11.30;99.90;;;;;;5089043;28;20028;-48
2022/06/22 01:26:12;;;;;;;1.33;1.17;;;11.30;99.90;;;;;;5109903;28;20028;-50
2022/06/22 01:28:37;;;;;;;3.22;1.77;;;11.20;99.90;;;;;;5085778;28;20064;-48
2022/06/22 01:31:13;;;;;;;4.78;1.65;;;11.20;99.90;;;;;;5109049;28;20081;-49
2022/06/22 01:33:45;;;;;;;2.83;1.83;;;11.20;99.90;;;;;;5083807;28;20024;-50
2022/06/22 01:36:32;;;;;;;2.15;1.50;;;11.20;99.90;;;;;;5069139;28;20439;-49
2022/06/22 01:39:00;;;;;;;3.28;1.90;;;11.10;99.90;;;;;;5106967;28;20030;-50
2022/06/22 01:41:31;;;;;;;1.65;1.33;;;11.10;99.90;;;;;;5089599;28;20446;-47
2022/06/22 01:44:07;;;;;;;4.28;1.48;;;11.10;99.90;;;;;;5087579;28;20039;-47
2022/06/22 01:46:41;;;;;;;;;;;11.10;99.90;;;;;;5089311;28;20102;-49
2022/06/22 01:49:18;;;;;;;1.80;1.50;;;11.10;99.90;;;;;;5107234;28;19986;-47
2022/06/22 01:51:52;;;;;;;3.47;1.52;;;11.00;99.90;;;;;;5069076;28;20024;-47
2022/06/22 01:54:32;;;;;;;3.97;1.60;;;11.00;99.90;;;;;;5080193;28;20039;-49
2022/06/22 01:57:13;;;;;;;4.20;1.40;;;10.90;99.90;;;;;;5068714;28;20039;-50
2022/06/22 01:59:47;;;;;;;3.33;2.25;;;10.90;99.90;;;;;;5089960;28;20027;-49
2022/06/22 02:02:19;;;;;;;2.28;1.52;;;10.90;99.90;;;;;;5109308;28;20068;-49
2022/06/22 02:04:50;;;;;;;4.25;1.60;;;10.80;99.90;;;;;;5083596;28;20104;-47
2022/06/22 02:07:45;;;;;;;3.75;1.70;;;10.80;99.90;;;;;;5068564;28;20059;-48
2022/06/22 02:10:43;;;;;;;1.77;1.40;;;10.80;99.90;;;;;;5086988;28;20031;-52
2022/06/22 02:13:39;;;;;;;3.13;1.70;;;10.80;99.90;;;;;;5072534;28;20099;-48
2022/06/22 02:16:23;;;;;;;2.33;1.55;;;10.70;99.90;;;;;;5108997;28;20020;-47
2022/06/22 02:19:06;;;;;;;2.63;1.48;;;10.70;99.90;;;;;;5083098;28;20154;-48
2022/06/22 02:21:38;;;;;;;2.83;1.10;;;10.60;99.90;;;;;;5068600;28;20056;-49
2022/06/22 02:24:17;;;;;;;2.58;1.33;;;10.60;99.90;;;;;;5087341;28;20036;-49
2022/06/22 02:26:51;;;;;;;3.88;1.52;;;10.60;99.90;;;;;;5068645;28;20037;-48
2022/06/22 02:29:21;;;;;;;1.77;1.13;;;10.60;99.90;;;;;;5090201;28;20127;-48
2022/06/22 02:31:47;;;;;;;1.45;1.15;;;10.50;99.90;;;;;;5088721;28;20024;-50
2022/06/22 02:34:15;;;;;;;1.42;1.25;;;10.60;99.90;;;;;;5094887;28;20028;-50
2022/06/22 02:36:44;;;;;;;2.05;1.70;;;10.50;99.90;;;;;;5108452;28;20051;-48
2022/06/22 02:39:11;;;;;;;2.15;1.17;;;10.50;99.90;;;;;;5097329;28;20031;-52
2022/06/22 02:44:33;;;;;;;1.43;1.30;;;10.50;99.90;;;;;;5090933;28;20050;-48
2022/06/22 02:47:27;;;;;;;2.08;1.30;;;10.50;99.90;;;;;;5068477;28;20047;-51
2022/06/22 02:50:11;;;;;;;2.50;1.55;;;10.50;99.90;;;;;;5081901;28;20036;-49
2022/06/22 02:52:47;;;;;;;1.55;1.23;;;10.50;99.90;;;;;;5067993;28;20388;-50
2022/06/22 02:55:15;;;;;;;;;;;10.40;99.90;;;;;;5086409;28;20455;-51
2022/06/22 02:57:50;;;;;;;1.80;1.08;;;10.50;99.90;;;;;;5112174;28;19919;-50
2022/06/22 03:00:19;;;;;;;2.85;1.23;;;10.40;99.90;;;;;;5096227;28;20027;-51
2022/06/22 03:02:47;;;;;;;4.28;1.30;;;10.40;99.90;;;;;;5092157;28;20096;-49
2022/06/22 03:05:14;;;;;;;1.55;1.10;;;10.40;99.90;;;;;;5091674;28;20488;-49
2022/06/22 03:07:46;;;;;;;4.20;1.20;;;10.40;99.90;;;;;;5112005;28;20024;-50
2022/06/22 03:10:21;;;;;;;4.72;1.30;;;10.40;99.90;;;;;;5088680;28;20024;-47
2022/06/22 03:12:46;;;;;;;7.05;1.20;;;10.50;99.90;;;;;;5072039;28;20036;-47
2022/06/22 03:15:19;;;;;;;2.17;1.00;;;10.40;99.90;;;;;;5090805;28;20400;-48
2022/06/22 03:17:45;;;;;;;4.18;1.15;;;10.40;99.90;;;;;;5071754;28;20033;-48
2022/06/22 03:20:19;;;;;;;1.98;1.00;;;10.50;99.90;;;;;;5091228;28;20399;-50
2022/06/22 03:22:50;;;;;;;3.47;1.42;;;10.50;99.90;;;;;;5071747;28;20115;-51
2022/06/22 03:25:21;;;;;;;1.27;0.95;;;10.50;99.90;;;;;;5088614;28;20120;-49
2022/06/22 03:27:51;;;;;;;2.45;1.58;;;10.60;99.90;;;;;;5084412;28;20423;-50
2022/06/22 03:30:20;;;;;;;3.78;1.63;;;10.60;99.90;;;;;;5110047;28;20024;-49
2022/06/22 03:32:49;;;;;;;2.08;1.30;;;10.60;99.90;;;;;;5091622;28;20519;-49
2022/06/22 03:35:21;;;;;;;2.08;1.33;;;10.70;99.90;;;;;;5091971;28;20496;-49
2022/06/22 03:37:51;;;;;;;5.05;1.33;;;10.70;99.90;;;;;;5111982;28;20035;-48
2022/06/22 03:40:24;;;;;;;1.10;1.00;;;10.80;99.90;;;;;;5088178;28;20082;-49
2022/06/22 03:42:58;;;;;;;1.58;1.10;;;11.30;99.90;;;;;;5071640;28;20087;-48
2022/06/22 03:45:29;;;;;;;2.15;1.13;;;12.30;99.90;;;;;;5089060;28;20357;-50
2022/06/22 03:47:58;;;;;;;3.78;1.33;;;13.30;99.90;;;;;;5071546;28;20097;-50
2022/06/22 03:50:37;;;;;;;3.65;1.05;;;14.20;98.30;;;;;;5090280;28;20399;-53
2022/06/22 03:53:03;;;;;;;1.55;1.15;;;15.00;94.00;;;;;;5071380;28;20499;-50
2022/06/22 03:55:33;;;;;;;2.65;1.27;;;15.80;91.70;;;;;;5108495;28;20016;-50
2022/06/22 03:58:00;;;;;;;1.67;0.80;;;16.70;89.00;;;;;;5071173;28;20229;-49
2022/06/22 04:00:27;;;;;;;1.85;0.80;;;17.40;84.80;;;;;;5098030;28;20039;-50
2022/06/22 04:02:52;;;;;;;0.82;0.82;;;18.10;79.70;;;;;;5091818;28;20036;-49
2022/06/22 04:05:22;;;;;;;1.35;0.80;;;18.80;75.20;;;;;;5091093;28;20121;-53
2022/06/22 04:07:48;;;;;;;2.08;1.02;;;19.40;69.10;;;;;;5088786;28;20483;-53
2022/06/22 04:10:27;;;;;;;1.33;0.80;;;20.00;66.60;;;;;;5089228;28;20056;-49
2022/06/22 04:12:54;;;;;;;2.05;1.17;;;20.60;53.10;;;;;;5071168;28;20029;-49
2022/06/22 04:15:34;;;;;;;3.42;1.25;;;21.10;60.80;;;;;;5090551;28;20024;-52
2022/06/22 04:18:06;;;;;;;1.67;1.17;;;21.70;48.90;;;;;;5070837;28;20032;-52
2022/06/22 04:20:51;;;;;;;1.33;1.00;;;22.30;52.80;;;;;;5088776;28;20445;-53
2022/06/22 04:23:32;;;;;;;2.95;1.40;;;22.80;45.90;;;;;;5069443;28;20029;-49
2022/06/22 04:26:27;;;;;;;1.77;1.23;;;23.30;36.50;;;;;;5111725;28;20110;-49
2022/06/22 04:29:00;;;;;;;2.92;1.20;;;23.80;32.60;;;;;;5050363;28;20789;-51
2022/06/22 04:31:34;;;;;;;1.90;1.30;;;24.40;37.60;;;;;;5070469;28;20040;-49
2022/06/22 04:34:05;;;;;;;2.45;0.90;;;24.80;36.40;;;;;;5084827;28;20051;-50
2022/06/22 04:36:51;;;;;;;1.40;0.80;;;25.20;33.20;;;;;;5089570;28;20016;-51
2022/06/22 04:39:26;;;;;;;1.63;0.85;;;25.60;25.50;;;;;;5083735;28;20031;-54
2022/06/22 04:41:52;;;;;;;1.02;0.70;;;26.10;24.10;;;;;;5070454;28;20476;-51
2022/06/22 04:44:23;;;;;;;1.73;0.75;;;26.40;27.00;;;;;;5098320;28;20040;-49
2022/06/22 04:46:52;;;;;;;1.00;0.63;;;26.80;21.60;;;;;;5070406;28;20113;-51
2022/06/22 04:49:27;;;;;;;1.13;0.85;;;27.20;22.60;;;;;;5107983;28;20024;-52
2022/06/22 04:51:59;;;;;;;1.40;0.90;;;27.60;20.90;;;;;;5070085;28;20034;-50
2022/06/22 04:54:29;;;;;;;3.03;1.00;;;27.90;17.10;;;;;;5085956;28;20019;-51
2022/06/22 04:56:56;;;;;;;2.25;0.90;;;28.40;15.90;;;;;;5090221;28;20620;-51
2022/06/22 04:59:24;;;;;;;2.70;1.00;;;28.70;14.60;;;;;;5107757;28;20635;-49
2022/06/22 05:01:57;;;;;;;2.05;1.20;;;28.90;13.00;;;;;;5084475;28;20084;-51
2022/06/22 05:04:33;;;;;;;2.10;1.00;;;29.30;8.40;;;;;;5084976;28;20097;-50
2022/06/22 05:07:17;;;;;;;1.65;1.00;;;29.40;7.80;;;;;;5089998;28;20028;-50
2022/06/22 05:09:48;;;;;;;1.60;1.10;;;29.70;5.00;;;;;;5089920;28;20020;-49
2022/06/22 05:12:18;;;;;;;5.75;1.33;;;30.10;4.60;;;;;;5069616;28;20040;-46
2022/06/22 05:14:44;;;;;;;1.98;0.95;;;30.50;5.50;;;;;;5107959;28;20035;-52
2022/06/22 05:17:29;;;;;;;1.77;1.05;;;30.80;5.60;;;;;;5090218;28;20028;-48
2022/06/22 05:20:12;;;;;;;2.60;1.05;;;31.30;1.00;;;;;;5078509;28;20106;-51
2022/06/22 05:22:38;;;;;;;2.45;1.10;;;31.60;1.60;;;;;;5069350;28;20107;-48
2022/06/22 05:25:06;;;;;;;3.28;1.20;;;31.80;3.80;;;;;;5091767;28;20156;-47
2022/06/22 05:28:00;;;;;;;1.63;1.20;;;31.90;3.30;;;;;;5104438;28;20044;-46
2022/06/22 05:30:40;;;;;;;1.88;1.08;;;32.00;1.00;;;;;;5102509;28;20088;-50
2022/06/22 05:33:13;;;;;;;1.85;1.15;;;32.80;1.70;;;;;;5069244;28;20043;-49
2022/06/22 05:35:46;;;;;;;3.17;0.98;;;33.10;1.00;;;;;;5085892;28;20028;-50
2022/06/22 05:38:13;;;;;;;1.65;1.13;;;33.50;1.00;;;;;;5067791;28;20041;-50
2022/06/22 05:40:40;;;;;;;0.90;0.80;;;33.90;1.00;;;;;;5088430;28;20391;-49
2022/06/22 05:43:07;;;;;;;1.80;0.98;;;34.20;1.00;;;;;;5108515;28;20055;-49
2022/06/22 05:45:38;;;;;;;2.35;1.02;;;34.70;1.00;;;;;;5087836;28;20032;-47
2022/06/22 05:48:05;;;;;;;3.88;1.10;;;35.00;1.00;;;;;;5068934;28;20028;-46
2022/06/22 05:50:43;;;;;;;1.40;0.90;;;35.30;1.00;;;;;;5089345;28;20120;-53
2022/06/22 05:53:23;;;;;;;1.33;0.90;;;35.90;1.00;;;;;;5068708;28;20024;-51
2022/06/22 05:56:13;;;;;;;1.77;0.95;;;36.40;1.00;;;;;;5086069;28;20024;-54
2022/06/22 05:58:53;;;;;;;2.17;1.23;;;36.60;1.00;;;;;;5068260;28;20488;-53
2022/06/22 06:01:35;;;;;;;1.60;1.10;;;36.60;1.00;;;;;;5102704;28;20096;-48
2022/06/22 06:04:10;;;;;;;2.38;1.00;;;37.00;1.00;;;;;;5074305;28;20036;-54
2022/06/22 06:06:40;;;;;;;2.57;1.00;;;37.50;1.00;;;;;;5109056;28;20034;-54
2022/06/22 06:09:19;;;;;;;0.80;0.80;;;38.00;1.00;;;;;;5075269;28;20435;-50
2022/06/22 06:11:53;;;;;;;2.63;0.90;;;38.60;1.00;;;;;;5108901;28;20272;-53
2022/06/22 06:14:26;;;;;;;2.67;1.23;;;38.90;1.00;;;;;;5078237;28;20036;-51
2022/06/22 06:16:56;;;;;;;2.60;1.10;;;39.20;1.00;;;;;;5108842;28;20358;-49
2022/06/22 06:19:25;;;;;;;3.08;1.15;;;39.00;1.00;;;;;;5078709;28;20228;-49
2022/06/22 06:21:54;;;;;;;1.73;1.00;;;39.20;1.00;;;;;;5109068;27;20016;-52
2022/06/22 06:27:38;;;;;;;1.27;1.17;;;39.90;1.00;;;;;;5104511;28;20063;-53
2022/06/22 06:30:13;;;;;;;1.42;0.90;;;40.20;1.00;;;;;;5098080;28;20122;-53
2022/06/22 06:32:50;;;;;;;1.52;0.82;;;40.50;1.00;;;;;;5068134;28;20021;-52
2022/06/22 06:35:39;;;;;;;2.20;0.80;;;40.70;1.00;;;;;;5079661;28;20177;-54
2022/06/22 06:38:42;;;;;;;1.83;0.95;;;40.70;1.00;;;;;;5067972;28;20846;-51
2022/06/22 06:41:16;;;;;;;1.92;1.00;;;41.00;1.00;;;;;;5068137;28;20488;-55
2022/06/22 06:43:52;;;;;;;1.67;0.75;;;41.40;1.00;;;;;;5068138;28;20031;-53
2022/06/22 06:46:22;;;;;;;2.17;0.85;;;42.00;1.00;;;;;;5067902;28;20542;-52
2022/06/22 06:49:11;;;;;;;1.80;1.20;;;42.30;1.00;;;;;;5106107;28;20071;-55
2022/06/22 06:51:41;;;;;;;2.03;0.85;;;42.60;1.00;;;;;;5108047;28;20101;-53
2022/06/22 06:54:19;;;;;;;1.42;1.05;;;43.00;1.00;;;;;;5089461;28;20085;-53
2022/06/22 06:56:54;;;;;;;1.63;0.95;;;43.00;1.00;;;;;;5108420;28;20028;-53
2022/06/22 06:59:25;;;;;;;1.58;0.80;;;43.30;1.00;;;;;;5072260;28;20039;-77
2022/06/22 07:01:50;;;;;;;1.65;0.98;;;43.50;1.00;;;;;;5108599;28;20027;-76
2022/06/22 07:04:23;;;;;;;3.85;1.17;;;43.80;1.00;;;;;;5091291;28;20487;-76
2022/06/22 07:06:48;;;;;;;0.98;0.70;;;44.20;1.00;;;;;;5108652;28;20019;-75
2022/06/22 07:09:30;;;;;;;2.72;0.90;;;44.30;1.00;;;;;;5090471;28;20024;-60
2022/06/22 07:12:21;;;;;;;2.17;0.93;;;44.40;1.00;;;;;;5108532;28;20028;-61
2022/06/22 07:14:47;;;;;;;1.38;0.82;;;44.60;1.00;;;;;;5082303;28;20097;-59
2022/06/22 07:17:20;;;;;;;1.63;0.90;;;44.80;1.00;;;;;;5088321;28;20061;-58
2022/06/22 07:19:53;;;;;;;0.98;0.77;;;45.10;1.00;;;;;;5081344;28;20027;-58
2022/06/22 07:22:25;;;;;;;1.52;0.90;;;45.00;1.00;;;;;;5067495;28;20029;-59
2022/06/22 07:25:27;;;;;;;2.75;1.10;;;45.10;1.00;;;;;;5082799;28;20020;-59
2022/06/22 07:28:15;;;;;;;1.58;0.73;;;45.00;1.00;;;;;;5080960;28;20035;-59
2022/06/22 07:30:48;;;;;;;1.77;0.80;;;44.70;1.00;;;;;;5106673;28;20091;-59
2022/06/22 07:33:20;;;;;;;3.03;0.85;;;44.50;1.00;;;;;;5067638;28;20504;-59
2022/06/22 07:35:52;;;;;;;1.08;0.70;;;44.20;1.00;;;;;;5089396;28;20527;-59
2022/06/22 07:38:32;;;;;;;1.52;0.68;;;44.30;1.00;;;;;;5108153;28;20036;-59
2022/06/22 07:43:43;;;;;;;4.15;1.40;;;45.10;1.00;;;;;;5070446;28;20039;-59
2022/06/22 07:46:16;;;;;;;2.33;0.88;;;44.90;1.00;;;;;;5089677;28;20132;-58
2022/06/22 07:48:46;;;;;;;1.35;0.95;;;44.70;1.00;;;;;;5071028;28;20395;-59
2022/06/22 07:51:22;;;;;;;4.30;1.00;;;44.90;1.00;;;;;;5090329;28;20515;-59
2022/06/22 07:54:14;;;;;;;0.93;0.60;;;45.10;1.00;;;;;;5071040;28;20044;-59
2022/06/22 07:56:52;;;;;;;1.58;0.90;;;45.20;1.00;;;;;;5070909;28;20549;-59
2022/06/22 07:59:39;;;;;;;1.58;0.85;;;44.30;1.00;;;;;;5068526;28;20034;-58
2022/06/22 08:02:15;;;;;;;0.90;0.60;;;44.10;1.00;;;;;;5111852;28;20016;-59
2022/06/22 08:04:59;;;;;;;2.38;1.02;;;44.10;1.00;;;;;;5080749;28;20022;-59
2022/06/22 08:07:37;;;;;;;2.03;0.85;;;44.10;1.00;;;;;;5111236;28;20024;-59
2022/06/22 08:10:18;;;;;;;2.60;0.80;;;44.20;1.00;;;;;;5087011;28;20078;-59
2022/06/22 08:13:13;;;;;;;1.27;0.80;;;44.20;1.00;;;;;;5070484;28;20048;-59
2022/06/22 08:15:49;;;;;;;1.73;0.60;;;43.90;1.00;;;;;;5096580;28;20031;-59
2022/06/22 08:18:14;;;;;;;1.33;1.00;;;43.90;1.00;;;;;;5070710;28;20306;-59
2022/06/22 08:20:43;;;;;;;1.92;0.80;;;43.90;1.00;;;;;;5093901;28;20036;-59
2022/06/22 08:23:16;;;;;;;1.38;0.90;;;43.60;1.00;;;;;;5110775;28;20403;-59
2022/06/22 08:25:44;;;;;;;1.43;0.80;;;43.40;1.00;;;;;;5082596;28;20050;-59
2022/06/22 08:28:16;;;;;;;4.15;0.70;;;42.90;1.00;;;;;;5100548;28;20511;-58
2022/06/22 08:30:42;;;;;;;2.00;0.75;;;42.50;1.00;;;;;;5082420;28;20112;-59
2022/06/22 08:33:13;;;;;;;1.95;0.80;;;42.20;1.00;;;;;;5109841;28;20122;-58
2022/06/22 08:35:57;;;;;;;1.83;0.95;;;41.90;1.00;;;;;;5081478;28;20046;-60
2022/06/22 08:38:31;;;;;;;1.05;0.85;;;41.70;1.00;;;;;;5070263;28;20028;-59
2022/06/22 08:41:19;;;;;;;1.58;0.85;;;41.40;1.00;;;;;;5084076;28;20040;-59
2022/06/22 08:43:55;;;;;;;2.05;1.00;;;41.20;1.00;;;;;;5070275;28;20025;-59
2022/06/22 08:46:35;;;;;;;1.98;0.80;;;40.60;1.00;;;;;;5082425;28;20033;-59
2022/06/22 08:49:13;;;;;;;4.45;1.02;;;40.10;1.00;;;;;;5070056;28;20111;-59
2022/06/22 08:51:59;;;;;;;1.13;0.80;;;39.60;1.00;;;;;;5069793;28;20106;-59
2022/06/22 08:54:45;;;;;;;1.10;0.80;;;39.30;1.00;;;;;;5072219;28;20071;-59
2022/06/22 08:57:38;;;;;;;2.55;1.05;;;39.10;1.00;;;;;;5110399;28;20124;-59
2022/06/22 09:00:19;;;;;;;2.15;0.80;;;38.60;1.00;;;;;;5073293;28;20016;-59
2022/06/22 09:03:29;;;;;;;0.80;0.80;;;38.30;1.00;;;;;;5069953;28;20033;-59
2022/06/22 09:06:11;;;;;;;2.45;0.70;;;38.20;1.00;;;;;;5082819;28;20434;-59
2022/06/22 09:09:07;;;;;;;0.77;0.77;;;37.50;1.00;;;;;;5089714;28;20055;-59
2022/06/22 09:12:09;;;;;;;1.75;0.70;;;37.20;1.00;;;;;;5063117;28;20451;-59
2022/06/22 09:15:13;;;;;;;1.38;0.75;;;37.00;1.00;;;;;;5073836;28;20032;-59
2022/06/22 09:18:11;;;;;;;1.73;0.68;;;36.80;1.00;;;;;;5090077;28;20027;-59
2022/06/22 09:21:10;;;;;;;1.60;0.80;;;36.50;1.00;;;;;;5090857;28;20028;-59
2022/06/22 09:23:41;;;;;;;1.55;0.90;;;36.30;1.00;;;;;;5069077;28;20577;-59
2022/06/22 09:26:18;;;;;;;2.65;0.90;;;36.20;1.00;;;;;;5091241;28;20105;-59
2022/06/22 09:28:59;;;;;;;2.13;0.90;;;36.10;1.00;;;;;;5068952;28;20061;-59
2022/06/22 09:31:43;;;;;;;0.98;0.60;;;35.70;1.00;;;;;;5085541;28;20024;-59
2022/06/22 09:34:58;;;;;;;2.17;0.60;;;35.50;1.00;;;;;;5108941;28;20043;-58
2022/06/22 09:37:45;;;;;;;1.70;0.73;;;35.60;1.00;;;;;;5077453;28;20036;-59
2022/06/22 09:40:17;;;;;;;4.53;0.80;;;35.30;1.00;;;;;;5081956;28;20383;-59
2022/06/22 09:42:54;;;;;;;2.63;0.93;;;35.20;1.00;;;;;;5109610;28;20021;-59
2022/06/22 09:45:41;;;;;;;1.30;0.80;;;34.40;1.00;;;;;;5084130;28;20081;-59
2022/06/22 09:48:26;;;;;;;0.70;0.70;;;34.10;1.00;;;;;;5089769;28;20038;-59
2022/06/22 09:51:00;;;;;;;2.67;0.60;;;34.30;1.00;;;;;;5092816;28;20043;-59
2022/06/22 09:53:42;;;;;;;1.13;0.60;;;34.40;1.00;;;;;;5068683;28;20067;-59
2022/06/22 09:56:19;;;;;;;2.75;0.90;;;33.90;1.00;;;;;;5081741;28;20020;-58
2022/06/22 09:59:19;;;;;;;3.88;1.00;;;33.70;1.00;;;;;;5068534;28;20035;-59
2022/06/22 10:02:17;;;;;;;1.88;0.90;;;33.60;1.00;;;;;;5086979;28;20035;-59
2022/06/22 10:04:45;;;;;;;1.27;0.70;;;33.50;1.00;;;;;;5089111;28;20828;-58
2022/06/22 10:07:29;;;;;;;2.20;0.90;;;33.20;1.00;;;;;;5107300;28;20519;-58
2022/06/22 10:10:23;;;;;;;1.38;0.85;;;33.00;1.00;;;;;;5075493;28;20106;-59
2022/06/22 10:12:59;;;;;;;1.38;1.10;;;32.50;1.00;;;;;;5089154;28;20024;-58
2022/06/22 10:15:49;;;;;;;2.67;0.90;;;32.20;1.00;;;;;;5082912;28;20255;-58
2022/06/22 10:18:30;;;;;;;2.22;1.10;;;31.90;1.00;;;;;;5068178;28;20462;-58
2022/06/22 10:21:20;;;;;;;3.45;1.17;;;31.60;1.00;;;;;;5091528;28;20024;-58
2022/06/22 10:24:16;;;;;;;1.00;0.90;;;31.10;1.00;;;;;;5068647;28;20117;-58
2022/06/22 10:27:01;;;;;;;2.90;1.08;;;30.70;1.00;;;;;;5085269;28;20066;-59
2022/06/22 10:29:54;;;;;;;3.20;0.80;;;30.70;1.00;;;;;;5066405;28;20119;-57
2022/06/22 10:32:33;;;;;;;1.98;0.73;;;30.60;1.00;;;;;;5068418;28;20033;-58
2022/06/22 10:35:24;;;;;;;2.33;1.10;;;30.50;1.00;;;;;;5088179;28;20028;-58
2022/06/22 10:38:11;;;;;;;1.30;0.90;;;30.40;1.00;;;;;;5088853;28;20408;-60
2022/06/22 10:47:26;;;;;;;1.40;0.90;;;29.70;1.00;;;;;;5068506;28;20047;-60
2022/06/22 10:50:30;;;;;;;2.72;0.95;;;29.50;1.00;;;;;;5072092;28;20032;-60
2022/06/22 10:53:34;;;;;;;2.10;1.00;;;29.40;1.00;;;;;;5105439;28;20036;-60
2022/06/22 10:56:31;;;;;;;3.75;1.27;;;29.00;1.00;;;;;;5086983;28;20032;-60
2022/06/22 10:59:33;;;;;;;1.55;1.10;;;28.80;1.00;;;;;;5068132;28;20128;-60
2022/06/22 11:02:32;;;;;;;5.22;1.30;;;28.50;1.00;;;;;;5068213;28;20131;-60
2022/06/22 11:05:19;;;;;;;4.10;1.38;;;28.30;1.00;;;;;;5072433;28;20023;-60
2022/06/22 11:07:47;;;;;;;1.80;1.33;;;28.00;1.00;;;;;;5108493;28;20024;-60
2022/06/22 11:11:07;;;;;;;2.47;0.90;;;28.00;1.00;;;;;;5092234;28;20076;-59
2022/06/22 11:13:42;;;;;;;1.48;0.90;;;27.90;1.00;;;;;;5044959;28;20053;-59
2022/06/22 11:16:20;;;;;;;3.30;1.45;;;28.10;1.00;;;;;;5072705;28;20044;-60
2022/06/22 11:19:14;;;;;;;1.65;1.10;;;28.10;1.00;;;;;;5070703;28;20033;-59
2022/06/22 11:22:00;;;;;;;2.22;1.00;;;28.30;1.00;;;;;;5087026;28;20028;-59
2022/06/22 11:24:47;;;;;;;4.93;1.48;;;28.40;1.00;;;;;;5071963;28;20032;-59
2022/06/22 11:31:05;;;;;;;1.27;0.88;;;27.90;1.00;;;;;;5059890;28;20035;-59
2022/06/22 11:33:52;;;;;;;2.65;0.95;;;27.90;1.00;;;;;;5071497;28;20028;-59
2022/06/22 11:36:48;;;;;;;3.17;1.20;;;28.00;1.00;;;;;;5083375;28;20038;-59
2022/06/22 11:39:30;;;;;;;;;;;28.00;1.00;;;;;;5070350;28;20476;-59
2022/06/22 11:42:29;;;;;;;3.38;1.35;;;28.10;1.00;;;;;;5087887;28;19915;-59
2022/06/22 11:48:06;;;;;;;1.42;1.05;;;27.80;1.00;;;;;;5111675;28;20098;-59
2022/06/22 11:51:11;;;;;;;2.13;0.95;;;27.60;1.00;;;;;;5082789;28;20024;-60
2022/06/22 11:53:44;;;;;;;1.88;1.17;;;27.60;1.00;;;;;;5071100;28;20063;-59
2022/06/22 11:56:33;;;;;;;3.25;1.58;;;27.60;1.00;;;;;;5092934;28;20444;-60
2022/06/22 11:59:29;;;;;;;4.50;1.40;;;27.40;1.00;;;;;;5071138;28;20551;-59
2022/06/22 12:02:32;;;;;;;4.60;1.20;;;27.20;1.00;;;;;;5083480;28;20040;-59
2022/06/22 12:05:33;;;;;;;2.45;1.10;;;27.10;1.00;;;;;;5070893;28;20021;-60
2022/06/22 12:08:32;;;;;;;3.05;1.20;;;27.20;1.00;;;;;;5111186;28;20016;-59
2022/06/22 12:11:13;;;;;;;5.78;1.65;;;27.20;1.00;;;;;;5088428;28;20571;-59
2022/06/22 12:17:09;;;;;;;6.32;1.63;;;27.10;1.00;;;;;;5073556;28;20439;-59
2022/06/22 12:20:01;;;;;;;2.50;1.20;;;27.00;1.00;;;;;;5070397;28;20032;-59
2022/06/22 12:22:52;;;;;;;4.35;1.25;;;27.00;1.00;;;;;;5070513;28;20028;-60
2022/06/22 12:25:32;;;;;;;7.88;1.60;;;26.90;1.00;;;;;;5074692;28;20091;-59
2022/06/22 12:28:11;;;;;;;3.67;1.05;;;26.90;1.00;;;;;;5101934;28;20044;-59
2022/06/22 12:30:50;;;;;;;2.40;1.00;;;27.00;1.00;;;;;;5080958;28;20071;-59
2022/06/22 12:33:25;;;;;;;3.58;1.48;;;27.10;1.00;;;;;;5110852;28;20384;-59
2022/06/22 12:36:14;;;;;;;2.65;1.30;;;27.10;1.00;;;;;;5084928;28;20023;-60
2022/06/22 12:39:06;;;;;;;5.53;1.48;;;27.10;1.00;;;;;;5070135;28;20025;-60
2022/06/22 12:42:00;;;;;;;2.58;1.35;;;27.20;1.00;;;;;;5082332;28;20035;-60
2022/06/22 12:44:58;;;;;;;3.83;1.30;;;27.30;1.00;;;;;;5069899;28;20107;-59
2022/06/22 12:48:03;;;;;;;3.90;1.27;;;27.40;1.00;;;;;;5070077;28;20029;-59
2022/06/22 12:50:45;;;;;;;4.97;1.20;;;27.40;1.00;;;;;;5077329;28;20019;-59
2022/06/22 12:53:29;;;;;;;2.63;1.13;;;27.30;1.00;;;;;;5110418;28;20035;-59
2022/06/22 12:56:28;;;;;;;1.52;1.00;;;27.30;1.00;;;;;;5084513;28;20024;-60
2022/06/22 12:59:04;;;;;;;2.35;1.02;;;27.30;1.00;;;;;;5067911;28;20632;-59
2022/06/22 13:01:31;;;;;;;4.10;1.45;;;27.40;1.00;;;;;;5074237;28;20093;-59
2022/06/22 13:04:02;;;;;;;1.83;0.90;;;27.40;1.00;;;;;;5109790;28;20043;-59
2022/06/22 13:06:30;;;;;;;1.67;0.98;;;27.30;1.00;;;;;;5080367;28;20089;-59
2022/06/22 13:08:57;;;;;;;2.25;1.10;;;27.40;1.00;;;;;;5109963;28;20030;-60
2022/06/22 13:11:25;;;;;;;2.38;1.40;;;27.10;1.00;;;;;;5088262;28;20560;-82
2022/06/22 13:14:20;;;;;;;2.33;1.17;;;27.00;1.00;;;;;;5110033;28;20078;-65
2022/06/22 13:17:13;;;;;;;2.58;1.05;;;26.90;1.00;;;;;;5082020;28;20024;-65
2022/06/22 13:19:51;;;;;;;3.08;1.15;;;27.00;1.00;;;;;;5069233;28;20032;-65
2022/06/22 13:22:28;;;;;;;1.92;1.00;;;27.10;1.00;;;;;;5087833;28;20031;-65
2022/06/22 13:25:16;;;;;;;3.00;1.10;;;27.20;1.00;;;;;;5069282;28;20036;-65
2022/06/22 13:28:10;;;;;;;4.15;1.08;;;27.20;1.00;;;;;;5080605;28;20036;-65
2022/06/22 13:30:55;;;;;;;4.47;1.50;;;27.10;1.00;;;;;;5106301;28;20055;-65
2022/06/22 13:33:50;;;;;;;3.70;1.40;;;26.90;1.00;;;;;;5109715;28;20611;-65
2022/06/22 13:37:01;;;;;;;5.00;1.35;;;26.70;1.00;;;;;;5085567;28;20039;-65
2022/06/22 13:39:52;;;;;;;2.67;1.33;;;26.60;1.00;;;;;;5067467;28;20053;-65
2022/06/22 13:42:45;;;;;;;2.33;1.10;;;26.50;1.00;;;;;;5086242;28;20071;-67
2022/06/22 13:45:32;;;;;;;2.70;1.10;;;26.60;1.00;;;;;;5068455;28;20032;-65
2022/06/22 13:48:16;;;;;;;1.17;0.95;;;26.70;1.00;;;;;;5109565;28;20035;-65
2022/06/22 13:51:44;;;;;;;1.33;1.00;;;26.70;1.00;;;;;;5075492;28;20445;-65
2022/06/22 13:54:31;;;;;;;3.28;0.98;;;26.80;1.00;;;;;;5026815;28;20041;-64
2022/06/22 13:57:38;;;;;;;1.45;0.88;;;26.90;1.00;;;;;;5082210;28;20495;-65
2022/06/22 14:00:14;;;;;;;4.88;0.98;;;27.00;1.00;;;;;;5077585;28;20503;-65
2022/06/22 14:02:58;;;;;;;1.88;0.90;;;27.00;1.00;;;;;;5108111;28;20707;-65
2022/06/22 14:05:46;;;;;;;2.17;1.10;;;27.00;1.00;;;;;;5070818;28;20024;-65
2022/06/22 14:08:43;;;;;;;4.22;1.10;;;26.90;1.00;;;;;;5109531;28;20016;-65
2022/06/22 14:11:52;;;;;;;0.80;0.80;;;26.90;1.00;;;;;;5082616;28;20019;-62
2022/06/22 14:14:31;;;;;;;1.63;0.73;;;26.90;1.00;;;;;;5006118;28;20066;-65
2022/06/22 14:17:05;;;;;;;1.60;0.90;;;27.00;1.00;;;;;;5073882;28;20043;-65
2022/06/22 14:20:16;;;;;;;2.88;1.23;;;27.00;1.00;;;;;;5108449;28;20034;-65
2022/06/22 14:22:48;;;;;;;1.70;0.90;;;27.00;1.00;;;;;;5068879;28;20508;-65
2022/06/22 14:25:34;;;;;;;2.47;0.70;;;27.00;1.00;;;;;;5067671;28;20033;-64